createdAt,value
2023-04-05T00:02:21.543Z,100238.78
2023-04-05T00:04:54.815Z,100233.72
2023-04-05T00:07:22.118Z,100231.44
2023-04-05T00:09:49.708Z,100233.91
2023-04-05T00:12:16.934Z,100249.84
2023-04-05T00:14:44.071Z,100241.16
2023-04-05T00:17:12.631Z,100230.28
2023-04-05T00:19:40.004Z,100235.12
2023-04-05T00:22:10.579Z,100227.13
2023-04-05T00:24:42.080Z,100238.50
2023-04-05T00:27:09.375Z,100226.31
2023-04-05T00:29:36.629Z,100228.31
2023-04-05T00:32:04.804Z,100221.66
2023-04-05T00:34:33.778Z,100216.03
2023-04-05T00:37:01.418Z,100219.38
2023-04-05T00:39:29.092Z,100220.03
2023-04-05T00:41:56.338Z,100220.41
2023-04-05T00:44:23.510Z,100219.91
2023-04-05T00:46:51.183Z,100219.53
2023-04-05T00:49:18.795Z,100227.88
2023-04-05T00:51:46.434Z,100234.41
2023-04-05T00:54:14.156Z,100225.75
2023-04-05T00:56:41.447Z,100229.12
2023-04-05T00:59:11.790Z,100223.00
2023-04-05T01:01:40.440Z,100219.53
2023-04-05T01:04:07.738Z,100223.50
2023-04-05T01:06:44.132Z,100220.19
2023-04-05T01:09:17.563Z,100224.53
2023-04-05T01:11:45.242Z,100218.75
2023-04-05T01:14:12.742Z,100211.00
2023-04-05T01:16:39.956Z,100225.56
2023-04-05T01:19:10.016Z,100216.87
2023-04-05T01:21:38.149Z,100213.03
2023-04-05T01:24:30.674Z,100210.47
2023-04-05T01:27:02.253Z,100212.50
2023-04-05T01:29:37.462Z,100215.81
2023-04-05T01:32:08.064Z,100223.78
2023-04-05T01:34:47.683Z,100219.19
2023-04-05T01:37:16.403Z,100216.25
2023-04-05T01:39:43.620Z,100216.97
2023-04-05T01:42:10.791Z,100216.53
2023-04-05T01:44:40.039Z,100215.53
2023-04-05T01:47:07.189Z,100213.03
2023-04-05T01:49:34.370Z,100221.56
2023-04-05T01:52:02.009Z,100216.44
2023-04-05T01:54:29.166Z,100209.94
2023-04-05T01:56:56.885Z,100215.09
2023-04-05T01:59:24.502Z,100211.25
2023-04-05T02:01:51.974Z,100211.13
2023-04-05T02:04:19.459Z,100207.16
2023-04-05T02:06:46.663Z,100210.37
2023-04-05T02:09:13.897Z,100209.44
2023-04-05T02:11:41.304Z,100201.47
2023-04-05T02:14:10.630Z,100208.19
2023-04-05T02:16:37.845Z,100203.69
2023-04-05T02:19:06.067Z,100200.50
2023-04-05T02:21:33.579Z,100206.87
2023-04-05T02:24:00.897Z,100209.97
2023-04-05T02:26:28.052Z,100207.16
2023-04-05T02:28:56.020Z,100210.72
2023-04-05T02:31:23.270Z,100202.56
2023-04-05T02:33:50.714Z,100202.84
2023-04-05T02:36:18.570Z,100209.34
2023-04-05T02:38:46.109Z,100218.19
2023-04-05T02:41:13.304Z,100216.37
2023-04-05T02:43:40.895Z,100206.91
2023-04-05T02:46:08.105Z,100203.81
2023-04-05T02:48:37.392Z,100211.84
2023-04-05T02:51:04.997Z,100207.06
2023-04-05T02:53:32.180Z,100205.84
2023-04-05T02:56:00.176Z,100201.38
2023-04-05T02:58:28.548Z,100203.31
2023-04-05T03:00:56.339Z,100211.38
2023-04-05T03:03:24.440Z,100198.50
2023-04-05T03:06:00.474Z,100199.59
2023-04-05T03:08:28.862Z,100209.56
2023-04-05T03:10:57.520Z,100201.66
2023-04-05T03:13:24.715Z,100210.75
2023-04-05T03:15:56.054Z,100197.53
2023-04-05T03:18:25.881Z,100211.56
2023-04-05T03:20:57.327Z,100205.44
2023-04-05T03:23:27.381Z,100201.78
2023-04-05T03:25:57.974Z,100204.97
2023-04-05T03:28:26.438Z,100209.97
2023-04-05T03:30:54.893Z,100210.19
2023-04-05T03:33:22.226Z,100211.06
2023-04-05T03:35:50.398Z,100210.50
2023-04-05T03:38:17.908Z,100214.31
2023-04-05T03:40:46.181Z,100213.63
2023-04-05T03:43:13.786Z,100208.09
2023-04-05T03:45:41.254Z,100219.22
2023-04-05T03:48:08.686Z,100222.28
2023-04-05T03:50:36.320Z,100227.16
2023-04-05T03:53:03.483Z,100230.81
2023-04-05T03:55:31.511Z,100234.88
2023-04-05T03:58:01.320Z,100237.63
2023-04-05T04:00:29.716Z,100232.06
2023-04-05T04:03:00.461Z,100227.25
2023-04-05T04:05:28.070Z,100236.38
2023-04-05T04:07:55.476Z,100241.09
2023-04-05T04:10:23.777Z,100240.50
2023-04-05T04:12:51.136Z,100238.44
2023-04-05T04:15:19.252Z,100240.94
2023-04-05T04:17:46.988Z,100244.88
2023-04-05T04:20:14.946Z,100241.84
2023-04-05T04:22:42.691Z,100240.47
2023-04-05T04:25:11.404Z,100241.63
2023-04-05T04:27:43.488Z,100233.16
2023-04-05T04:30:12.224Z,100227.59
2023-04-05T04:33:05.400Z,100231.31
2023-04-05T04:35:35.048Z,100234.59
2023-04-05T04:38:03.851Z,100234.47
2023-04-05T04:40:38.687Z,100238.56
2023-04-05T04:43:14.439Z,100240.06
2023-04-05T04:45:42.084Z,100241.63
2023-04-05T04:48:14.081Z,100239.88
2023-04-05T04:50:41.437Z,100242.78
2023-04-05T04:53:08.613Z,100244.50
2023-04-05T04:55:36.254Z,100241.06
2023-04-05T04:58:10.111Z,100246.69
2023-04-05T05:00:42.072Z,100244.31
2023-04-05T05:03:11.560Z,100251.16
2023-04-05T05:05:46.843Z,100254.75
2023-04-05T05:08:19.710Z,100255.69
2023-04-05T05:10:54.941Z,100252.50
2023-04-05T05:13:22.357Z,100245.91
2023-04-05T05:15:49.863Z,100254.34
2023-04-05T05:18:17.227Z,100257.66
2023-04-05T05:20:44.607Z,100257.41
2023-04-05T05:23:12.264Z,100259.41
2023-04-05T05:25:39.482Z,100255.47
2023-04-05T05:28:06.784Z,100263.13
2023-04-05T05:30:34.378Z,100259.50
2023-04-05T05:33:02.474Z,100260.03
2023-04-05T05:35:29.700Z,100265.16
2023-04-05T05:37:57.222Z,100266.56
2023-04-05T05:40:26.860Z,100263.66
2023-04-05T05:42:54.150Z,100270.13
2023-04-05T05:45:21.562Z,100259.25
2023-04-05T05:47:48.831Z,100254.84
2023-04-05T05:50:17.228Z,100256.09
2023-04-05T05:52:44.738Z,100259.56
2023-04-05T05:55:11.883Z,100254.84
2023-04-05T05:57:39.156Z,100256.50
2023-04-05T06:00:10.676Z,100259.19
2023-04-05T06:02:38.836Z,100258.84
2023-04-05T06:05:06.671Z,100258.03
2023-04-05T06:07:37.795Z,100248.16
2023-04-05T06:10:05.548Z,100259.44
2023-04-05T06:12:33.139Z,100246.63
2023-04-05T06:15:00.957Z,100251.22
2023-04-05T06:17:28.706Z,100257.91
2023-04-05T06:19:56.285Z,100247.84
2023-04-05T06:22:23.708Z,100249.66
2023-04-05T06:24:50.969Z,100255.44
2023-04-05T06:27:18.398Z,100251.41
2023-04-05T06:29:45.782Z,100251.66
2023-04-05T06:32:12.932Z,100252.16
2023-04-05T06:34:40.654Z,100249.06
2023-04-05T06:37:07.785Z,100239.47
2023-04-05T06:39:34.953Z,100243.69
2023-04-05T06:42:02.732Z,100253.69
2023-04-05T06:44:33.137Z,100256.78
2023-04-05T06:47:00.416Z,100247.50
2023-04-05T06:49:27.926Z,100245.22
2023-04-05T06:51:55.568Z,100243.94
2023-04-05T06:54:24.604Z,100244.22
2023-04-05T06:56:52.173Z,100240.56
2023-04-05T06:59:19.750Z,100239.97
2023-04-05T07:01:47.286Z,100234.50
2023-04-05T07:04:15.001Z,100228.13
2023-04-05T07:06:42.250Z,100230.25
2023-04-05T07:09:09.551Z,100228.91
2023-04-05T07:11:37.104Z,100238.59
2023-04-05T07:14:04.356Z,100241.28
2023-04-05T07:16:31.719Z,100252.16
2023-04-05T07:18:59.368Z,100235.50
2023-04-05T07:21:27.164Z,100240.22
2023-04-05T07:23:56.095Z,100241.69
2023-04-05T07:26:23.613Z,100234.25
2023-04-05T07:28:50.791Z,100230.59
2023-04-05T07:31:17.986Z,100237.53
2023-04-05T07:33:45.740Z,100242.12
2023-04-05T07:36:15.465Z,100234.28
2023-04-05T07:38:43.577Z,100240.87
2023-04-05T07:41:11.614Z,100241.72
2023-04-05T07:43:38.943Z,100236.31
2023-04-05T07:46:06.194Z,100242.50
2023-04-05T07:48:33.681Z,100231.22
2023-04-05T07:51:07.435Z,100232.12
2023-04-05T07:53:36.322Z,100241.47
2023-04-05T07:56:07.381Z,100240.41
2023-04-05T07:58:35.347Z,100232.34
2023-04-05T08:01:03.646Z,100235.66
2023-04-05T08:03:32.045Z,100229.44
2023-04-05T08:05:59.476Z,100235.78
2023-04-05T08:08:26.713Z,100229.53
2023-04-05T08:10:54.888Z,100233.50
2023-04-05T08:13:22.392Z,100221.38
2023-04-05T08:15:50.130Z,100233.94
2023-04-05T08:18:19.261Z,100229.59
2023-04-05T08:20:50.986Z,100226.34
2023-04-05T08:23:18.742Z,100225.31
2023-04-05T08:25:47.240Z,100218.62
2023-04-05T08:28:14.494Z,100229.19
2023-04-05T08:30:42.553Z,100214.38
2023-04-05T08:33:10.446Z,100228.84
2023-04-05T08:35:37.753Z,100224.66
2023-04-05T08:38:06.756Z,100216.69
2023-04-05T08:40:40.868Z,100213.50
2023-04-05T08:43:11.638Z,100212.50
2023-04-05T08:45:47.989Z,100210.44
2023-04-05T08:48:16.385Z,100218.81
2023-04-05T08:50:49.972Z,100220.00
2023-04-05T08:53:17.656Z,100213.06
2023-04-05T08:55:44.828Z,100217.25
2023-04-05T08:58:13.291Z,100210.31
2023-04-05T09:00:41.386Z,100215.09
2023-04-05T09:03:09.199Z,100213.37
2023-04-05T09:05:36.895Z,100212.69
2023-04-05T09:08:04.463Z,100212.84
2023-04-05T09:10:31.627Z,100206.31
2023-04-05T09:12:59.997Z,100212.41
2023-04-05T09:15:27.654Z,100209.31
2023-04-05T09:17:54.977Z,100212.47
2023-04-05T09:20:22.218Z,100211.16
2023-04-05T09:22:49.738Z,100219.87
2023-04-05T09:25:32.363Z,100213.87
2023-04-05T09:28:00.136Z,100207.28
2023-04-05T09:30:30.286Z,100223.63
2023-04-05T09:32:57.535Z,100211.66
2023-04-05T09:35:25.748Z,100207.84
2023-04-05T09:37:53.894Z,100207.97
2023-04-05T09:40:23.148Z,100202.56
2023-04-05T09:42:51.292Z,100202.16
2023-04-05T09:45:18.857Z,100193.44
2023-04-05T09:47:58.773Z,100193.94
2023-04-05T09:50:26.425Z,100182.44
2023-04-05T09:53:05.730Z,100183.97
2023-04-05T09:55:33.432Z,100186.47
2023-04-05T09:58:01.312Z,100184.53
2023-04-05T10:00:29.260Z,100178.78
2023-04-05T10:02:56.853Z,100180.53
2023-04-05T10:05:25.152Z,100174.69
2023-04-05T10:07:52.884Z,100171.09
2023-04-05T10:10:20.624Z,100168.22
2023-04-05T10:12:47.918Z,100175.63
2023-04-05T10:15:15.876Z,100175.69
2023-04-05T10:17:51.591Z,100163.50
2023-04-05T10:20:19.917Z,100161.28
2023-04-05T10:23:01.330Z,100166.63
2023-04-05T10:25:35.681Z,100160.25
2023-04-05T10:28:06.942Z,100156.88
2023-04-05T10:30:36.968Z,100148.63
2023-04-05T10:33:07.844Z,100157.59
2023-04-05T10:35:38.439Z,100161.41
2023-04-05T10:38:12.084Z,100154.34
2023-04-05T10:40:39.514Z,100149.16
2023-04-05T10:43:07.249Z,100145.81
2023-04-05T10:45:35.882Z,100148.31
2023-04-05T10:48:07.084Z,100146.47
2023-04-05T10:50:34.605Z,100136.22
2023-04-05T10:53:01.901Z,100130.38
2023-04-05T10:55:29.313Z,100128.00
2023-04-05T10:57:56.912Z,100138.34
2023-04-05T11:00:24.456Z,100138.69
2023-04-05T11:02:54.032Z,100133.38
2023-04-05T11:05:32.920Z,100126.72
2023-04-05T11:08:01.114Z,100130.34
2023-04-05T11:10:29.510Z,100124.31
2023-04-05T11:12:56.687Z,100133.16
2023-04-05T11:15:30.227Z,100136.97
2023-04-05T11:18:04.906Z,100115.97
2023-04-05T11:20:42.746Z,100137.66
2023-04-05T11:23:10.883Z,100120.22
2023-04-05T11:25:41.635Z,100122.81
2023-04-05T11:28:09.293Z,100134.41
2023-04-05T11:30:46.436Z,100126.44
2023-04-05T11:33:33.548Z,100121.53
2023-04-05T11:36:02.884Z,100117.53
2023-04-05T11:38:30.294Z,100116.06
2023-04-05T11:41:07.431Z,100106.91
2023-04-05T11:43:35.583Z,100116.22
2023-04-05T11:46:04.390Z,100110.38
2023-04-05T11:48:31.570Z,100111.56
2023-04-05T11:50:59.261Z,100102.00
2023-04-05T11:53:26.614Z,100106.91
2023-04-05T11:55:55.405Z,100096.22
2023-04-05T11:58:23.925Z,100092.50
2023-04-05T12:00:58.143Z,100090.50
2023-04-05T12:03:26.516Z,100088.41
2023-04-05T12:05:54.147Z,100092.78
2023-04-05T12:08:21.764Z,100079.59
2023-04-05T12:10:58.787Z,100073.56
2023-04-05T12:13:29.511Z,100089.22
2023-04-05T12:16:00.732Z,100080.97
2023-04-05T12:18:29.024Z,100077.06
2023-04-05T12:20:56.654Z,100081.81
2023-04-05T12:23:24.704Z,100079.53
2023-04-05T12:25:53.304Z,100067.19
2023-04-05T12:28:20.985Z,100066.09
2023-04-05T12:30:51.488Z,100066.38
2023-04-05T12:33:28.538Z,100059.75
2023-04-05T12:35:56.400Z,100057.72
2023-04-05T12:38:25.412Z,100060.28
2023-04-05T12:40:52.580Z,100063.09
2023-04-05T12:43:20.456Z,100066.09
2023-04-05T12:45:50.363Z,100053.84
2023-04-05T12:48:25.816Z,100056.03
2023-04-05T12:50:55.118Z,100050.25
2023-04-05T12:53:23.865Z,100053.09
2023-04-05T12:55:54.952Z,100055.16
2023-04-05T12:58:35.537Z,100058.56
2023-04-05T13:01:03.393Z,100052.84
2023-04-05T13:03:31.249Z,100051.75
2023-04-05T13:05:58.715Z,100045.16
2023-04-05T13:08:27.677Z,100031.78
2023-04-05T13:10:57.728Z,100029.25
2023-04-05T13:13:25.596Z,100023.19
2023-04-05T13:15:52.873Z,100024.34
2023-04-05T13:18:20.679Z,100037.66
2023-04-05T13:20:47.941Z,100042.53
2023-04-05T13:23:15.126Z,100028.25
2023-04-05T13:25:43.679Z,100025.84
2023-04-05T13:28:11.049Z,100020.31
2023-04-05T13:30:38.243Z,100027.41
2023-04-05T13:33:06.789Z,100029.56
2023-04-05T13:35:34.299Z,100027.63
2023-04-05T13:38:04.213Z,100017.81
2023-04-05T13:40:32.614Z,100023.31
2023-04-05T13:43:00.357Z,100017.28
2023-04-05T13:45:28.968Z,100015.34
2023-04-05T13:47:56.686Z,100011.78
2023-04-05T13:50:24.317Z,100018.59
2023-04-05T13:52:51.954Z,100011.69
2023-04-05T13:55:20.519Z,100008.62
2023-04-05T13:57:47.708Z,100005.63
2023-04-05T14:00:15.235Z,100016.63
2023-04-05T14:02:43.035Z,100010.66
2023-04-05T14:05:10.392Z,100021.72
2023-04-05T14:07:37.715Z,100017.31
2023-04-05T14:10:06.630Z,100010.69
2023-04-05T14:12:34.323Z,100015.78
2023-04-05T14:15:01.766Z,100009.97
2023-04-05T14:17:29.251Z,100011.28
2023-04-05T14:19:56.440Z,100013.44
2023-04-05T14:22:23.609Z,100016.97
2023-04-05T14:24:51.029Z,100010.25
2023-04-05T14:27:18.210Z,100007.59
2023-04-05T14:29:46.146Z,100007.34
2023-04-05T14:32:13.618Z,100005.69
2023-04-05T14:34:40.828Z,100007.44
2023-04-05T14:37:08.110Z,100011.81
2023-04-05T14:39:35.554Z,100004.56
2023-04-05T14:42:03.194Z,100007.50
2023-04-05T14:44:30.486Z,100005.97
2023-04-05T14:46:57.937Z,100010.34
2023-04-05T14:49:25.415Z,100014.25
2023-04-05T14:51:53.149Z,100018.28
2023-04-05T14:54:20.576Z,100014.13
2023-04-05T14:56:47.800Z,100009.56
2023-04-05T14:59:16.003Z,100013.25
2023-04-05T15:01:45.573Z,100011.75
2023-04-05T15:04:12.980Z,100017.06
2023-04-05T15:06:40.370Z,100014.41
2023-04-05T15:09:07.875Z,100017.13
2023-04-05T15:11:38.612Z,100020.88
2023-04-05T15:14:06.074Z,100009.87
2023-04-05T15:16:33.533Z,100006.94
2023-04-05T15:19:00.982Z,100015.84
2023-04-05T15:21:28.334Z,100016.22
2023-04-05T15:23:55.960Z,100012.47
2023-04-05T15:26:23.157Z,100027.31
2023-04-05T15:28:50.521Z,100024.03
2023-04-05T15:31:18.669Z,100025.31
2023-04-05T15:33:46.277Z,100028.03
2023-04-05T15:36:13.642Z,100021.25
2023-04-05T15:38:41.112Z,100017.75
2023-04-05T15:41:08.434Z,100025.00
2023-04-05T15:43:35.944Z,100021.59
2023-04-05T15:46:05.142Z,100026.75
2023-04-05T15:48:35.307Z,100023.78
2023-04-05T15:51:02.453Z,100025.31
2023-04-05T15:53:29.906Z,100017.31
2023-04-05T15:55:58.388Z,100022.97
2023-04-05T15:58:25.621Z,100023.00
2023-04-05T16:00:53.064Z,100030.75
2023-04-05T16:03:20.835Z,100030.56
2023-04-05T16:05:48.064Z,100032.16
2023-04-05T16:08:15.213Z,100036.41
2023-04-05T16:10:42.862Z,100032.78
2023-04-05T16:13:11.221Z,100036.75
2023-04-05T16:15:38.447Z,100039.25
2023-04-05T16:18:06.701Z,100030.44
2023-04-05T16:20:34.190Z,100033.09
2023-04-05T16:23:01.925Z,100036.56
2023-04-05T16:25:29.641Z,100037.75
2023-04-05T16:27:56.842Z,100038.66
2023-04-05T16:30:24.036Z,100031.16
2023-04-05T16:32:52.227Z,100041.44
2023-04-05T16:35:19.596Z,100049.88
2023-04-05T16:37:46.909Z,100038.84
2023-04-05T16:40:14.518Z,100038.19
2023-04-05T16:42:41.799Z,100038.59
2023-04-05T16:45:09.338Z,100033.63
2023-04-05T16:47:37.131Z,100038.81
2023-04-05T16:50:04.605Z,100037.37
2023-04-05T16:52:32.061Z,100035.97
2023-04-05T16:54:59.503Z,100040.13
2023-04-05T16:57:26.708Z,100033.97
2023-04-05T16:59:53.989Z,100033.00
2023-04-05T17:02:21.468Z,100038.62
2023-04-05T17:04:48.685Z,100036.06
2023-04-05T17:07:15.862Z,100035.47
2023-04-05T17:09:43.318Z,100040.44
2023-04-05T17:12:12.207Z,100041.66
2023-04-05T17:14:39.774Z,100035.81
2023-04-05T17:17:07.238Z,100035.91
2023-04-05T17:19:34.440Z,100039.09
2023-04-05T17:22:01.758Z,100033.69
2023-04-05T17:24:33.536Z,100030.66
2023-04-05T17:27:01.272Z,100034.84
2023-04-05T17:29:28.840Z,100028.91
2023-04-05T17:31:57.028Z,100033.91
2023-04-05T17:34:24.158Z,100038.88
2023-04-05T17:36:52.833Z,100039.75
2023-04-05T17:39:20.118Z,100039.69
2023-04-05T17:41:47.481Z,100044.78
2023-04-05T17:44:15.196Z,100043.91
2023-04-05T17:46:48.730Z,100055.62
2023-04-05T17:49:21.797Z,100054.69
2023-04-05T17:51:49.241Z,100056.12
2023-04-05T17:54:16.544Z,100054.81
2023-04-05T17:56:44.364Z,100054.03
2023-04-05T17:59:11.676Z,100062.38
2023-04-05T18:01:39.733Z,100060.56
2023-04-05T18:04:09.355Z,100062.34
2023-04-05T18:06:38.623Z,100065.56
2023-04-05T18:09:08.839Z,100071.25
2023-04-05T18:11:37.348Z,100072.16
2023-04-05T18:14:05.768Z,100075.53
2023-04-05T18:16:34.632Z,100074.00
2023-04-05T18:19:02.129Z,100069.47
2023-04-05T18:21:29.322Z,100072.03
2023-04-05T18:23:58.027Z,100082.06
2023-04-05T18:26:25.690Z,100082.06
2023-04-05T18:28:59.741Z,100092.03
2023-04-05T18:31:28.483Z,100095.19
2023-04-05T18:33:55.712Z,100095.81
2023-04-05T18:36:25.595Z,100097.78
2023-04-05T18:38:53.812Z,100085.59
2023-04-05T18:41:21.136Z,100091.25
2023-04-05T18:43:49.218Z,100090.03
2023-04-05T18:46:18.760Z,100100.69
2023-04-05T18:48:46.821Z,100101.50
2023-04-05T18:51:14.030Z,100094.84
2023-04-05T18:53:41.589Z,100103.41
2023-04-05T18:56:09.453Z,100104.44
2023-04-05T18:58:37.184Z,100101.63
2023-04-05T19:01:05.942Z,100098.66
2023-04-05T19:03:33.582Z,100095.03
2023-04-05T19:06:01.169Z,100095.28
2023-04-05T19:08:31.011Z,100101.19
2023-04-05T19:11:01.292Z,100104.69
2023-04-05T19:13:30.098Z,100104.69
2023-04-05T19:15:57.768Z,100102.88
2023-04-05T19:18:29.257Z,100105.94
2023-04-05T19:20:57.722Z,100108.50
2023-04-05T19:23:25.909Z,100105.31
2023-04-05T19:25:57.038Z,100110.38
2023-04-05T19:28:24.925Z,100112.31
2023-04-05T19:30:52.588Z,100100.88
2023-04-05T19:33:21.554Z,100108.47
2023-04-05T19:35:50.101Z,100115.13
2023-04-05T19:38:17.785Z,100117.25
2023-04-05T19:40:45.101Z,100123.41
2023-04-05T19:43:13.125Z,100118.34
2023-04-05T19:45:40.788Z,100121.97
2023-04-05T19:48:28.084Z,100115.91
2023-04-05T19:50:57.489Z,100113.31
2023-04-05T19:53:32.251Z,100117.56
2023-04-05T19:56:00.110Z,100109.97
2023-04-05T19:58:28.017Z,100114.56
2023-04-05T20:00:55.645Z,100112.94
2023-04-05T20:03:33.103Z,100113.81
2023-04-05T20:06:09.582Z,100105.91
2023-04-05T20:08:38.325Z,100110.72
2023-04-05T20:11:07.929Z,100106.06
2023-04-05T20:13:42.329Z,100108.53
2023-04-05T20:16:10.806Z,100106.75
2023-04-05T20:18:38.329Z,100109.13
2023-04-05T20:21:06.318Z,100106.62
2023-04-05T20:23:33.797Z,100108.56
2023-04-05T20:26:01.076Z,100121.25
2023-04-05T20:28:40.489Z,100124.06
2023-04-05T20:31:15.923Z,100140.81
2023-04-05T20:33:47.495Z,100151.75
2023-04-05T20:36:21.937Z,100141.50
2023-04-05T20:38:49.420Z,100146.59
2023-04-05T20:41:18.593Z,100145.47
2023-04-05T20:43:45.980Z,100142.81
2023-04-05T20:46:13.386Z,100143.97
2023-04-05T20:48:40.926Z,100141.13
2023-04-05T20:51:08.737Z,100144.06
2023-04-05T20:53:36.580Z,100147.69
2023-04-05T20:56:04.662Z,100144.06
2023-04-05T20:58:32.014Z,100154.56
2023-04-05T21:01:02.959Z,100157.53
2023-04-05T21:03:31.878Z,100160.84
2023-04-05T21:05:59.546Z,100157.03
2023-04-05T21:08:27.010Z,100159.88
2023-04-05T21:10:54.725Z,100164.88
2023-04-05T21:13:22.117Z,100167.81
2023-04-05T21:15:49.376Z,100165.75
2023-04-05T21:18:17.026Z,100172.56
2023-04-05T21:20:50.511Z,100166.44
2023-04-05T21:23:18.666Z,100166.78
2023-04-05T21:25:46.134Z,100165.66
2023-04-05T21:28:13.819Z,100174.03
2023-04-05T21:30:41.343Z,100172.22
2023-04-05T21:33:08.595Z,100165.19
2023-04-05T21:35:35.974Z,100167.75
2023-04-05T21:38:03.633Z,100164.72
2023-04-05T21:40:30.894Z,100167.94
2023-04-05T21:42:58.234Z,100169.84
2023-04-05T21:45:25.833Z,100175.13
2023-04-05T21:47:53.133Z,100171.25
2023-04-05T21:50:20.485Z,100170.28
2023-04-05T21:52:47.999Z,100167.91
2023-04-05T21:55:15.347Z,100168.47
2023-04-05T21:57:42.533Z,100176.84
2023-04-05T22:00:12.098Z,100171.94
2023-04-05T22:02:40.001Z,100175.13
2023-04-05T22:05:07.863Z,100168.03
2023-04-05T22:07:35.626Z,100176.50
2023-04-05T22:10:03.481Z,100170.41
2023-04-05T22:12:31.105Z,100172.06
2023-04-05T22:14:58.315Z,100175.34
2023-04-05T22:17:25.610Z,100173.81
2023-04-05T22:19:53.183Z,100173.50
2023-04-05T22:22:20.499Z,100174.97
2023-04-05T22:24:48.963Z,100171.94
2023-04-05T22:27:16.396Z,100175.72
2023-04-05T22:29:43.559Z,100174.88
2023-04-05T22:32:10.902Z,100173.16
2023-04-05T22:34:38.976Z,100168.12
2023-04-05T22:37:06.403Z,100169.25
2023-04-05T22:39:33.562Z,100171.47
2023-04-05T22:42:01.539Z,100170.53
2023-04-05T22:44:28.773Z,100178.59
2023-04-05T22:46:55.929Z,100175.19
2023-04-05T22:49:23.391Z,100170.31
2023-04-05T22:51:50.544Z,100172.78
2023-04-05T22:54:17.724Z,100172.44
2023-04-05T22:56:45.456Z,100184.03
2023-04-05T22:59:12.722Z,100179.56
2023-04-05T23:01:40.054Z,100175.84
2023-04-05T23:04:07.786Z,100173.94
2023-04-05T23:06:35.187Z,100179.56
2023-04-05T23:09:04.356Z,100171.72
2023-04-05T23:11:31.854Z,100171.56
2023-04-05T23:13:59.086Z,100181.69
2023-04-05T23:16:26.625Z,100170.53
2023-04-05T23:18:54.251Z,100179.75
2023-04-05T23:21:21.528Z,100174.12
2023-04-05T23:23:48.788Z,100177.66
2023-04-05T23:26:16.262Z,100168.34
2023-04-05T23:28:43.467Z,100174.97
2023-04-05T23:31:10.886Z,100174.62
2023-04-05T23:33:38.375Z,100168.78
2023-04-05T23:36:05.935Z,100175.87
2023-04-05T23:38:33.123Z,100175.22
2023-04-05T23:41:00.546Z,100173.59
2023-04-05T23:43:27.752Z,100172.47
2023-04-05T23:45:54.932Z,100161.22
2023-04-05T23:48:22.414Z,100163.25
2023-04-05T23:50:49.810Z,100160.41
2023-04-05T23:53:17.014Z,100159.06
2023-04-05T23:55:44.447Z,100158.72
2023-04-05T23:58:11.612Z,100157.88
